createdAt,value
2023-01-12T00:00:49.530Z,2.70
2023-01-12T00:03:17.100Z,2.60
2023-01-12T00:05:44.805Z,2.60
2023-01-12T00:08:16.857Z,2.70
2023-01-12T00:10:46.190Z,2.60
2023-01-12T00:13:21.468Z,2.60
2023-01-12T00:16:09.782Z,2.70
2023-01-12T00:18:38.575Z,2.50
2023-01-12T00:21:09.947Z,2.90
2023-01-12T00:23:37.746Z,2.70
2023-01-12T00:26:10.915Z,2.70
2023-01-12T00:28:46.533Z,2.60
2023-01-12T00:31:15.101Z,2.50
2023-01-12T00:33:44.894Z,2.40
2023-01-12T00:36:20.464Z,2.50
2023-01-12T00:38:48.496Z,2.50
2023-01-12T00:41:40.392Z,2.50
2023-01-12T00:44:38.990Z,2.60
2023-01-12T00:47:08.488Z,2.20
2023-01-12T00:49:47.279Z,2.50
2023-01-12T00:52:37.046Z,2.50
2023-01-12T00:55:08.052Z,2.50
2023-01-12T00:57:48.547Z,2.30
2023-01-12T01:00:19.663Z,2.30
2023-01-12T01:02:53.481Z,2.30
2023-01-12T01:05:23.988Z,2.30
2023-01-12T01:08:03.138Z,2.40
2023-01-12T01:10:33.563Z,2.30
2023-01-12T01:13:01.736Z,2.30
2023-01-12T01:15:31.893Z,2.20
2023-01-12T01:18:09.661Z,2.30
2023-01-12T01:20:37.036Z,2.20
2023-01-12T01:23:11.865Z,2.30
2023-01-12T01:25:41.686Z,2.50
2023-01-12T01:28:16.327Z,2.40
2023-01-12T01:30:44.576Z,2.50
2023-01-12T01:33:12.574Z,2.30
2023-01-12T01:35:40.312Z,2.50
2023-01-12T01:38:07.707Z,2.40
2023-01-12T01:40:35.284Z,2.40
2023-01-12T01:43:05.762Z,2.60
2023-01-12T01:45:33.315Z,2.40
2023-01-12T01:48:02.828Z,2.40
2023-01-12T01:50:38.338Z,2.50
2023-01-12T01:53:36.771Z,2.40
2023-01-12T01:56:12.303Z,2.40
2023-01-12T01:58:45.217Z,2.30
2023-01-12T02:01:15.314Z,2.40
2023-01-12T02:03:43.776Z,2.40
2023-01-12T02:06:11.723Z,2.40
2023-01-12T02:09:15.453Z,2.30
2023-01-12T02:12:04.346Z,2.50
2023-01-12T02:14:57.369Z,2.40
2023-01-12T02:18:06.435Z,2.40
2023-01-12T02:21:32.157Z,2.50
2023-01-12T02:24:16.210Z,2.20
2023-01-12T02:27:16.297Z,2.40
2023-01-12T02:33:16.874Z,2.40
2023-01-12T02:35:57.763Z,2.40
2023-01-12T02:38:50.162Z,2.30
2023-01-12T02:41:51.877Z,2.40
2023-01-12T02:44:41.822Z,2.50
2023-01-12T02:47:21.261Z,2.20
2023-01-12T02:50:05.871Z,2.30
2023-01-12T02:52:46.803Z,2.50
2023-01-12T02:55:19.810Z,2.40
2023-01-12T02:57:50.476Z,2.40
2023-01-12T03:00:31.719Z,2.40
2023-01-12T03:02:59.092Z,2.40
2023-01-12T03:05:31.946Z,2.40
2023-01-12T03:08:07.077Z,2.40
2023-01-12T03:10:54.213Z,2.50
2023-01-12T03:13:27.613Z,2.30
2023-01-12T03:16:10.112Z,2.40
2023-01-12T03:19:32.330Z,2.30
2023-01-12T03:22:11.461Z,2.60
2023-01-12T03:25:09.446Z,2.30
2023-01-12T03:27:52.600Z,2.40
2023-01-12T03:30:25.364Z,2.40
2023-01-12T03:32:55.086Z,2.30
2023-01-12T03:35:28.574Z,2.20
2023-01-12T03:38:05.878Z,2.40
2023-01-12T03:40:40.999Z,2.10
2023-01-12T03:43:23.117Z,2.30
2023-01-12T03:45:55.243Z,2.00
2023-01-12T03:48:30.295Z,2.20
2023-01-12T03:51:16.493Z,2.30
2023-01-12T03:53:49.924Z,2.10
2023-01-12T03:56:38.099Z,2.20
2023-01-12T03:59:13.487Z,2.20
2023-01-12T04:01:43.861Z,1.90
2023-01-12T04:04:11.474Z,2.10
2023-01-12T04:07:01.721Z,2.20
2023-01-12T04:09:32.460Z,2.10
2023-01-12T04:12:15.141Z,2.00
2023-01-12T04:14:46.851Z,2.00
2023-01-12T04:17:25.606Z,1.80
2023-01-12T04:19:53.023Z,2.10
2023-01-12T04:22:48.423Z,2.20
2023-01-12T04:25:20.319Z,2.00
2023-01-12T04:27:48.807Z,1.90
2023-01-12T04:33:09.737Z,2.00
2023-01-12T04:35:39.809Z,1.90
2023-01-12T04:38:11.585Z,1.90
2023-01-12T04:40:41.507Z,1.70
2023-01-12T04:43:14.265Z,1.90
2023-01-12T04:45:45.075Z,1.90
2023-01-12T04:48:25.573Z,1.70
2023-01-12T04:50:56.464Z,1.90
2023-01-12T04:53:51.711Z,1.90
2023-01-12T04:56:22.507Z,1.80
2023-01-12T04:58:50.126Z,1.90
2023-01-12T05:01:22.663Z,1.80
2023-01-12T05:03:53.266Z,1.70
2023-01-12T05:06:26.995Z,1.90
2023-01-12T05:09:13.973Z,1.90
2023-01-12T05:11:41.242Z,1.90
2023-01-12T05:14:13.323Z,1.70
2023-01-12T05:16:41.163Z,1.90
2023-01-12T05:19:11.153Z,1.80
2023-01-12T05:21:44.281Z,1.80
2023-01-12T05:24:18.246Z,1.90
2023-01-12T05:27:04.844Z,1.80
2023-01-12T05:29:39.625Z,1.70
2023-01-12T05:32:09.556Z,1.90
2023-01-12T05:34:43.123Z,1.90
2023-01-12T05:37:17.068Z,2.30
2023-01-12T05:39:53.413Z,2.20
2023-01-12T05:42:39.610Z,2.00
2023-01-12T05:45:10.090Z,2.10
2023-01-12T05:47:48.464Z,1.90
2023-01-12T05:50:20.455Z,2.00
2023-01-12T05:52:53.143Z,2.10
2023-01-12T05:55:22.941Z,2.10
2023-01-12T05:57:53.257Z,1.90
2023-01-12T06:00:22.510Z,1.90
2023-01-12T06:02:52.722Z,2.00
2023-01-12T06:05:20.047Z,2.00
2023-01-12T06:07:52.848Z,2.00
2023-01-12T06:10:20.687Z,2.10
2023-01-12T06:13:09.439Z,2.10
2023-01-12T06:15:39.635Z,2.10
2023-01-12T06:18:13.312Z,2.10
2023-01-12T06:20:52.413Z,2.10
2023-01-12T06:23:35.489Z,2.00
2023-01-12T06:26:10.702Z,2.30
2023-01-12T06:28:51.920Z,2.20
2023-01-12T06:31:37.105Z,2.30
2023-01-12T06:34:16.846Z,2.10
2023-01-12T06:36:44.373Z,2.30
2023-01-12T06:39:23.697Z,2.20
2023-01-12T06:42:23.057Z,2.20
2023-01-12T06:45:05.815Z,2.40
2023-01-12T06:48:02.613Z,2.30
2023-01-12T06:50:33.555Z,2.30
2023-01-12T06:53:10.532Z,2.40
2023-01-12T06:56:05.527Z,2.50
2023-01-12T06:59:00.845Z,2.60
2023-01-12T07:02:01.448Z,2.40
2023-01-12T07:04:53.801Z,2.60
2023-01-12T07:08:01.676Z,2.40
2023-01-12T07:11:11.069Z,2.40
2023-01-12T07:13:59.034Z,2.60
2023-01-12T07:16:30.639Z,2.50
2023-01-12T07:19:25.860Z,2.60
2023-01-12T07:22:04.914Z,2.60
2023-01-12T07:24:37.235Z,2.60
2023-01-12T07:27:50.442Z,2.80
2023-01-12T07:30:25.314Z,2.60
2023-01-12T07:33:37.958Z,2.70
2023-01-12T07:36:06.876Z,2.60
2023-01-12T07:38:40.719Z,2.90
2023-01-12T07:41:29.409Z,2.80
2023-01-12T07:44:14.603Z,2.70
2023-01-12T07:47:16.449Z,2.80
2023-01-12T07:53:32.683Z,2.60
2023-01-12T07:56:27.040Z,2.80
2023-01-12T07:58:55.644Z,2.90
2023-01-12T08:01:38.410Z,2.80
2023-01-12T08:04:33.390Z,2.90
2023-01-12T08:08:04.676Z,2.90
2023-01-12T08:10:43.289Z,2.80
2023-01-12T08:13:15.297Z,2.90
2023-01-12T08:16:33.211Z,3.00
2023-01-12T08:19:21.441Z,2.90
2023-01-12T08:22:14.405Z,2.80
2023-01-12T08:24:59.852Z,3.00
2023-01-12T08:27:35.752Z,3.00
2023-01-12T08:36:54.505Z,3.20
2023-01-12T08:39:29.107Z,3.10
2023-01-12T08:42:09.856Z,3.20
2023-01-12T08:44:40.466Z,3.20
2023-01-12T08:47:52.478Z,3.20
2023-01-12T08:50:27.213Z,3.30
2023-01-12T08:53:04.306Z,3.20
2023-01-12T08:56:00.494Z,3.30
2023-01-12T08:59:09.088Z,3.40
2023-01-12T09:04:57.733Z,3.30
2023-01-12T09:11:08.583Z,3.50
2023-01-12T09:13:44.520Z,3.50
2023-01-12T09:16:55.454Z,3.50
2023-01-12T09:19:28.976Z,3.70
2023-01-12T09:22:25.141Z,3.60
2023-01-12T09:25:35.383Z,3.70
2023-01-12T09:30:38.305Z,3.80
2023-01-12T09:33:27.984Z,3.80
2023-01-12T09:36:57.280Z,3.90
2023-01-12T09:43:12.189Z,3.60
2023-01-12T09:49:11.812Z,3.90
2023-01-12T09:58:35.161Z,4.00
2023-01-12T10:01:28.319Z,4.00
2023-01-12T10:04:07.125Z,3.90
2023-01-12T10:06:37.821Z,3.90
2023-01-12T10:09:25.434Z,4.10
2023-01-12T10:12:20.620Z,4.10
2023-01-12T10:26:46.271Z,4.00
2023-01-12T10:29:26.660Z,4.20
2023-01-12T10:40:31.623Z,4.20
2023-01-12T10:43:37.203Z,3.90
2023-01-12T10:46:38.927Z,4.10
2023-01-12T10:49:36.021Z,4.20
2023-01-12T10:52:38.075Z,4.30
2023-01-12T11:00:04.989Z,4.40
2023-01-12T11:03:06.060Z,4.30
2023-01-12T11:05:49.062Z,4.30
2023-01-12T11:18:14.241Z,4.40
2023-01-12T11:21:21.938Z,4.50
2023-01-12T11:24:36.095Z,4.40
2023-01-12T11:28:01.138Z,4.60
2023-01-12T11:30:44.672Z,4.60
2023-01-12T11:34:06.334Z,4.50
2023-01-12T11:36:58.162Z,4.50
2023-01-12T11:39:37.549Z,4.60
2023-01-12T11:43:01.766Z,4.80
2023-01-12T11:45:58.871Z,4.80
2023-01-12T11:53:05.089Z,4.90
2023-01-12T11:56:39.945Z,4.90
2023-01-12T11:59:49.440Z,4.80
2023-01-12T12:02:41.025Z,4.90
2023-01-12T12:08:49.817Z,4.50
2023-01-12T12:15:38.413Z,4.60
2023-01-12T12:18:29.969Z,4.70
2023-01-12T12:22:19.471Z,4.70
2023-01-12T12:25:01.329Z,4.80
2023-01-12T12:32:08.077Z,4.80
2023-01-12T12:34:46.556Z,4.60
2023-01-12T12:37:49.526Z,4.80
2023-01-12T12:41:35.806Z,4.90
2023-01-12T12:48:42.839Z,4.90
2023-01-12T12:51:35.484Z,5.00
2023-01-12T12:54:09.846Z,5.00
2023-01-12T12:56:47.903Z,4.90
2023-01-12T13:00:01.162Z,4.90
2023-01-12T13:02:46.138Z,4.80
2023-01-12T13:06:11.521Z,4.90
2023-01-12T13:08:55.068Z,5.10
2023-01-12T13:16:47.831Z,5.00
2023-01-12T13:31:13.274Z,4.90
2023-01-12T13:37:20.231Z,4.80
2023-01-12T13:40:02.985Z,4.80
2023-01-12T13:42:58.680Z,4.70
2023-01-12T13:45:27.216Z,4.70
2023-01-12T13:48:03.989Z,4.80
2023-01-12T13:51:01.968Z,4.70
2023-01-12T13:57:47.269Z,4.60
2023-01-12T14:00:27.364Z,4.70
2023-01-12T14:02:58.556Z,4.50
2023-01-12T14:05:38.319Z,4.70
2023-01-12T14:09:02.735Z,4.50
2023-01-12T14:12:26.549Z,4.50
2023-01-12T14:19:07.416Z,4.40
2023-01-12T14:21:46.650Z,4.60
2023-01-12T14:24:24.900Z,4.50
2023-01-12T14:27:12.425Z,4.50
2023-01-12T14:29:46.525Z,4.50
2023-01-12T14:32:37.664Z,4.70
2023-01-12T14:35:42.593Z,4.50
2023-01-12T14:38:42.243Z,4.60
2023-01-12T14:41:55.949Z,4.50
2023-01-12T14:45:14.742Z,4.70
2023-01-12T14:51:45.416Z,4.70
2023-01-12T14:53:48.766Z,4.70
2023-01-12T14:57:07.939Z,4.80
2023-01-12T14:59:56.217Z,4.80
2023-01-12T15:02:35.033Z,4.90
2023-01-12T15:05:13.730Z,4.80
2023-01-12T15:08:02.394Z,4.80
2023-01-12T15:10:36.642Z,4.90
2023-01-12T15:13:28.519Z,4.90
2023-01-12T15:16:16.023Z,4.90
2023-01-12T15:19:06.009Z,5.10
2023-01-12T15:21:53.539Z,5.00
2023-01-12T15:24:54.579Z,5.10
2023-01-12T15:27:27.803Z,5.00
2023-01-12T15:30:09.800Z,5.00
2023-01-12T15:32:52.150Z,5.00
2023-01-12T15:35:29.777Z,5.00
2023-01-12T15:38:12.906Z,4.90
2023-01-12T15:40:48.927Z,4.90
2023-01-12T15:43:18.798Z,4.80
2023-01-12T15:45:47.711Z,4.90
2023-01-12T15:48:20.255Z,5.00
2023-01-12T15:50:51.894Z,5.00
2023-01-12T15:53:27.512Z,4.90
2023-01-12T15:55:56.606Z,5.00
2023-01-12T15:58:27.090Z,4.90
2023-01-12T16:00:58.587Z,4.80
2023-01-12T16:03:54.907Z,4.80
2023-01-12T16:06:30.243Z,4.80
2023-01-12T16:09:02.366Z,4.90
2023-01-12T16:11:40.998Z,4.90
2023-01-12T16:14:32.804Z,5.00
2023-01-12T16:17:02.653Z,4.90
2023-01-12T16:19:38.479Z,4.80
2023-01-12T16:22:05.824Z,4.80
2023-01-12T16:24:34.340Z,4.70
2023-01-12T16:27:04.308Z,4.90
2023-01-12T16:29:32.287Z,4.90
2023-01-12T16:31:59.872Z,4.90
2023-01-12T16:34:27.631Z,5.00
2023-01-12T16:36:55.320Z,4.80
2023-01-12T16:39:27.681Z,4.90
2023-01-12T16:42:03.465Z,4.80
2023-01-12T16:44:39.302Z,4.90
2023-01-12T16:47:11.923Z,4.90
2023-01-12T16:49:39.696Z,4.90
2023-01-12T16:52:08.270Z,4.90
2023-01-12T16:54:42.846Z,5.00
2023-01-12T16:57:15.993Z,4.90
2023-01-12T16:59:43.907Z,4.80
2023-01-12T17:02:17.018Z,4.80
2023-01-12T17:04:48.969Z,4.90
2023-01-12T17:07:16.783Z,5.00
2023-01-12T17:09:46.338Z,4.90
2023-01-12T17:12:14.277Z,4.90
2023-01-12T17:14:42.263Z,4.80
2023-01-12T17:17:15.244Z,4.80
2023-01-12T17:19:46.006Z,5.00
2023-01-12T17:22:14.101Z,4.70
2023-01-12T17:24:41.892Z,4.90
2023-01-12T17:27:10.764Z,5.00
2023-01-12T17:29:40.928Z,4.90
2023-01-12T17:32:09.339Z,5.10
2023-01-12T17:34:50.443Z,4.90
2023-01-12T17:37:20.547Z,5.00
2023-01-12T17:39:50.064Z,5.00
2023-01-12T17:42:36.822Z,4.90
2023-01-12T17:45:11.899Z,4.90
2023-01-12T17:48:13.689Z,5.00
2023-01-12T17:50:41.046Z,5.10
2023-01-12T17:53:20.064Z,5.10
2023-01-12T17:55:52.294Z,5.00
2023-01-12T17:58:20.361Z,5.00
2023-01-12T18:00:47.527Z,5.00
2023-01-12T18:03:14.797Z,5.00
2023-01-12T18:05:44.523Z,5.10
2023-01-12T18:08:17.063Z,5.20
2023-01-12T18:10:44.689Z,5.20
2023-01-12T18:13:13.517Z,5.20
2023-01-12T18:15:44.104Z,5.20
2023-01-12T18:18:11.508Z,5.20
2023-01-12T18:20:41.112Z,5.40
2023-01-12T18:23:08.595Z,5.40
2023-01-12T18:25:38.026Z,5.20
2023-01-12T18:28:07.663Z,5.50
2023-01-12T18:30:35.227Z,5.30
2023-01-12T18:33:02.705Z,5.50
2023-01-12T18:35:30.287Z,5.40
2023-01-12T18:37:57.927Z,5.50
2023-01-12T18:40:27.884Z,5.30
2023-01-12T18:42:56.173Z,5.40
2023-01-12T18:45:25.373Z,5.30
2023-01-12T18:48:13.601Z,5.20
2023-01-12T18:51:01.892Z,5.30
2023-01-12T18:53:32.023Z,5.30
2023-01-12T18:56:04.202Z,5.10
2023-01-12T18:58:33.289Z,5.00
2023-01-12T19:01:06.730Z,5.10
2023-01-12T19:03:36.047Z,5.10
2023-01-12T19:06:35.477Z,5.00
2023-01-12T19:09:25.543Z,4.90
2023-01-12T19:11:52.977Z,5.00
2023-01-12T19:14:41.833Z,5.10
2023-01-12T19:17:32.674Z,4.80
2023-01-12T19:20:06.123Z,4.90
2023-01-12T19:22:52.216Z,4.80
2023-01-12T19:25:41.383Z,5.00
2023-01-12T19:28:31.713Z,4.90
2023-01-12T19:31:04.134Z,5.00
2023-01-12T19:33:31.744Z,5.00
2023-01-12T19:36:04.142Z,5.00
2023-01-12T19:38:31.236Z,5.10
2023-01-12T19:41:11.235Z,5.00
2023-01-12T19:43:41.979Z,5.10
2023-01-12T19:46:13.138Z,5.20
2023-01-12T19:48:40.730Z,5.10
2023-01-12T19:51:11.063Z,5.00
2023-01-12T19:53:40.555Z,5.00
2023-01-12T19:56:11.939Z,5.00
2023-01-12T19:58:39.538Z,5.10
2023-01-12T20:01:07.705Z,5.10
2023-01-12T20:03:35.348Z,5.20
2023-01-12T20:06:09.585Z,5.20
2023-01-12T20:08:37.016Z,5.10
2023-01-12T20:11:16.403Z,5.20
2023-01-12T20:13:43.517Z,5.20
2023-01-12T20:16:14.025Z,5.10
2023-01-12T20:18:43.735Z,5.20
2023-01-12T20:21:12.605Z,5.20
2023-01-12T20:23:42.396Z,5.20
2023-01-12T20:26:11.499Z,5.30
2023-01-12T20:28:38.965Z,5.30
2023-01-12T20:31:29.664Z,5.30
2023-01-12T20:33:59.121Z,5.20
2023-01-12T20:36:26.440Z,5.40
2023-01-12T20:38:53.674Z,5.40
2023-01-12T20:41:28.586Z,5.30
2023-01-12T20:44:00.633Z,5.20
2023-01-12T20:46:28.411Z,5.20
2023-01-12T20:48:57.723Z,5.40
2023-01-12T20:51:31.140Z,5.40
2023-01-12T20:54:05.119Z,5.40
2023-01-12T20:56:32.506Z,5.50
2023-01-12T20:59:00.513Z,5.40
2023-01-12T21:01:31.157Z,5.50
2023-01-12T21:04:05.055Z,5.20
2023-01-12T21:06:35.278Z,5.50
2023-01-12T21:09:02.788Z,5.50
2023-01-12T21:11:30.150Z,5.50
2023-01-12T21:13:59.796Z,5.50
2023-01-12T21:16:28.199Z,5.50
2023-01-12T21:18:58.905Z,5.60
2023-01-12T21:21:26.440Z,5.50
2023-01-12T21:23:56.685Z,5.60
2023-01-12T21:26:24.018Z,5.70
2023-01-12T21:28:51.559Z,5.70
2023-01-12T21:31:19.437Z,5.60
2023-01-12T21:33:46.688Z,5.70
2023-01-12T21:36:14.747Z,5.60
2023-01-12T21:38:48.039Z,5.70
2023-01-12T21:41:16.404Z,5.80
2023-01-12T21:43:47.636Z,5.60
2023-01-12T21:46:17.985Z,5.80
2023-01-12T21:48:53.207Z,5.80
2023-01-12T21:51:20.468Z,5.80
2023-01-12T21:53:47.970Z,5.80
2023-01-12T21:56:18.300Z,5.90
2023-01-12T21:58:45.816Z,5.90
2023-01-12T22:01:14.791Z,5.90
2023-01-12T22:03:42.371Z,5.80
2023-01-12T22:06:12.175Z,6.00
2023-01-12T22:08:41.351Z,6.00
2023-01-12T22:11:22.518Z,5.80
2023-01-12T22:13:52.741Z,5.90
2023-01-12T22:16:20.776Z,5.90
2023-01-12T22:18:49.996Z,5.90
2023-01-12T22:21:19.442Z,5.90
2023-01-12T22:23:52.393Z,6.00
2023-01-12T22:26:25.664Z,6.00
2023-01-12T22:28:52.928Z,5.90
2023-01-12T22:31:25.747Z,6.00
2023-01-12T22:34:05.034Z,5.90
2023-01-12T22:36:35.166Z,6.00
2023-01-12T22:39:05.722Z,5.90
2023-01-12T22:41:32.922Z,6.00
2023-01-12T22:44:09.219Z,6.00
2023-01-12T22:46:37.156Z,6.20
2023-01-12T22:49:04.824Z,6.00
2023-01-12T22:51:31.941Z,6.00
2023-01-12T22:53:59.581Z,6.10
2023-01-12T22:56:29.468Z,6.10
2023-01-12T22:58:57.084Z,6.00
2023-01-12T23:01:26.278Z,5.90
2023-01-12T23:03:56.293Z,6.10
2023-01-12T23:06:25.175Z,6.00
2023-01-12T23:08:55.800Z,6.10
2023-01-12T23:11:25.717Z,6.10
2023-01-12T23:13:57.582Z,6.10
2023-01-12T23:16:26.114Z,6.00
2023-01-12T23:18:55.613Z,6.20
2023-01-12T23:21:26.739Z,6.20
2023-01-12T23:23:56.405Z,6.00
2023-01-12T23:26:31.737Z,6.10
2023-01-12T23:29:00.995Z,6.00
2023-01-12T23:31:30.652Z,6.10
2023-01-12T23:34:02.527Z,6.20
2023-01-12T23:36:31.180Z,6.10
2023-01-12T23:39:00.946Z,6.10
2023-01-12T23:41:30.329Z,6.00
2023-01-12T23:44:00.174Z,6.10
2023-01-12T23:46:29.085Z,6.20
2023-01-12T23:49:06.368Z,6.20
2023-01-12T23:51:34.730Z,6.20
2023-01-12T23:54:02.946Z,6.10
2023-01-12T23:56:33.649Z,6.00
2023-01-12T23:59:02.023Z,6.20
